Time;durP1;ratioP1;P1;durP2;ratioP2;P2;SDS_P1;SDS_P2;PMS_P1;PMS_P2;Temp;Humidity;BMP_temperature;BMP_pressure;BME280_temperature;BME280_humidity;BME280_pressure;Samples;Min_cycle;Max_cycle;Signal;HPM_P1;HPM_P2
2021/05/20 00:01:52;;;;;;;2.00;1.00;;;13.00;99.90;;;;;;5096066;28;20168;-58
2021/05/20 00:04:19;;;;;;;2.07;1.30;;;13.10;99.90;;;;;;5074542;28;20405;-60
2021/05/20 00:06:45;;;;;;;3.40;1.53;;;13.10;99.90;;;;;;5055261;28;20431;-58
2021/05/20 00:09:11;;;;;;;1.60;1.10;;;13.00;99.90;;;;;;5054863;28;20409;-58
2021/05/20 00:11:37;;;;;;;2.40;1.50;;;13.10;99.90;;;;;;5088440;28;20423;-60
2021/05/20 00:14:02;;;;;;;2.80;0.90;;;12.90;99.90;;;;;;5095427;28;20181;-60
2021/05/20 00:16:28;;;;;;;2.80;1.10;;;13.00;99.90;;;;;;5073590;28;20215;-60
2021/05/20 00:18:53;;;;;;;2.00;1.00;;;12.90;99.90;;;;;;5061023;28;20661;-60
2021/05/20 00:21:19;;;;;;;1.63;1.10;;;12.90;99.90;;;;;;5074190;28;20228;-60
2021/05/20 00:23:45;;;;;;;1.93;1.03;;;13.10;99.90;;;;;;5074906;28;20245;-61
2021/05/20 00:26:12;;;;;;;2.33;1.00;;;12.90;99.90;;;;;;5074863;28;20189;-60
2021/05/20 00:28:39;;;;;;;1.83;1.00;;;12.90;99.90;;;;;;5075117;28;20181;-60
2021/05/20 00:31:05;;;;;;;1.70;1.17;;;12.90;99.90;;;;;;5075104;28;20411;-60
2021/05/20 00:33:30;;;;;;;2.53;1.50;;;12.90;99.90;;;;;;5074619;28;20901;-60
2021/05/20 00:35:56;;;;;;;1.57;1.33;;;13.00;99.90;;;;;;5074623;28;20197;-60
2021/05/20 00:38:22;;;;;;;1.53;1.30;;;13.10;99.90;;;;;;5074764;28;20669;-59
2021/05/20 00:40:47;;;;;;;2.40;1.20;;;13.10;99.90;;;;;;5075033;28;20171;-60
2021/05/20 00:43:13;;;;;;;2.30;1.10;;;13.10;99.90;;;;;;5073581;28;20169;-60
2021/05/20 00:45:38;;;;;;;1.63;1.10;;;12.80;99.90;;;;;;5058672;28;20338;-60
2021/05/20 00:48:04;;;;;;;2.03;1.23;;;12.80;99.90;;;;;;5074205;28;20174;-58
2021/05/20 00:50:30;;;;;;;2.80;1.20;;;12.60;99.90;;;;;;5073517;28;20725;-60
2021/05/20 00:52:55;;;;;;;1.43;1.33;;;12.50;99.90;;;;;;5074693;28;20503;-60
2021/05/20 00:55:23;;;;;;;2.10;1.40;;;12.60;99.90;;;;;;5086840;28;20173;-60
2021/05/20 00:57:51;;;;;;;1.80;1.10;;;12.50;99.90;;;;;;5094588;28;20193;-59
2021/05/20 01:00:18;;;;;;;2.03;1.40;;;12.40;99.90;;;;;;5094337;28;20928;-60
2021/05/20 01:02:44;;;;;;;1.63;1.50;;;12.50;99.90;;;;;;5094448;28;20490;-60
2021/05/20 01:05:12;;;;;;;3.00;1.03;;;12.50;99.90;;;;;;5059395;28;20401;-60
2021/05/20 01:07:38;;;;;;;0.80;0.80;;;12.50;99.90;;;;;;5053677;28;20429;-60
2021/05/20 01:10:05;;;;;;;1.53;1.30;;;12.60;99.90;;;;;;5054406;28;20461;-60
2021/05/20 01:12:31;;;;;;;1.47;1.37;;;12.50;99.90;;;;;;5053934;28;20692;-60
2021/05/20 01:14:57;;;;;;;1.90;1.20;;;12.60;99.90;;;;;;5054013;28;20397;-60
2021/05/20 01:17:25;;;;;;;1.17;0.90;;;12.60;99.90;;;;;;5095920;22;20487;-53
2021/05/20 01:19:51;;;;;;;1.60;1.20;;;12.70;99.90;;;;;;5073570;28;20201;-54
2021/05/20 01:22:17;;;;;;;1.43;1.13;;;12.50;99.90;;;;;;5074092;28;20405;-51
2021/05/20 01:24:43;;;;;;;1.10;1.00;;;12.70;99.90;;;;;;5074668;28;20411;-52
2021/05/20 01:27:10;;;;;;;1.83;1.00;;;12.80;99.90;;;;;;5065861;28;20183;-52
2021/05/20 01:29:39;;;;;;;1.10;0.80;;;12.90;99.90;;;;;;5054197;28;20420;-53
2021/05/20 01:32:05;;;;;;;1.30;1.07;;;13.00;99.90;;;;;;5053534;28;20426;-52
2021/05/20 01:34:32;;;;;;;1.60;1.20;;;13.00;99.90;;;;;;5053789;28;20397;-51
2021/05/20 01:37:02;;;;;;;3.00;1.30;;;12.80;99.90;;;;;;5053997;28;20531;-51
2021/05/20 01:39:28;;;;;;;2.90;1.20;;;12.80;99.90;;;;;;5054188;28;20461;-50
2021/05/20 01:41:53;;;;;;;1.00;0.90;;;12.70;99.90;;;;;;5053914;28;20393;-52
2021/05/20 01:44:21;;;;;;;1.33;1.10;;;12.70;99.90;;;;;;5053780;28;20172;-53
2021/05/20 01:46:47;;;;;;;1.90;1.07;;;12.70;99.90;;;;;;5053935;28;20198;-51
2021/05/20 01:49:13;;;;;;;1.17;1.03;;;12.60;99.90;;;;;;5053450;28;20444;-50
2021/05/20 01:51:40;;;;;;;3.33;0.97;;;12.60;99.90;;;;;;5053710;28;20400;-51
2021/05/20 01:54:06;;;;;;;1.43;1.10;;;12.60;99.90;;;;;;5053044;28;20409;-53
2021/05/20 01:56:36;;;;;;;2.13;1.20;;;12.70;99.90;;;;;;5053475;28;20444;-50
2021/05/20 01:59:05;;;;;;;1.40;1.03;;;12.50;99.90;;;;;;5049089;28;20450;-51
2021/05/20 02:01:31;;;;;;;1.50;1.13;;;12.30;99.90;;;;;;5039787;28;20406;-51
2021/05/20 02:03:57;;;;;;;1.30;1.20;;;12.30;99.90;;;;;;5022262;28;20940;-53
2021/05/20 02:06:22;;;;;;;1.93;1.30;;;12.00;99.90;;;;;;5057298;28;20174;-50
2021/05/20 02:08:48;;;;;;;1.50;1.10;;;11.90;99.90;;;;;;5073652;28;20412;-50
2021/05/20 02:11:14;;;;;;;1.20;1.00;;;12.00;99.90;;;;;;5073560;28;20190;-53
2021/05/20 02:13:39;;;;;;;1.17;1.07;;;12.10;99.90;;;;;;5073577;28;20162;-51
2021/05/20 02:16:06;;;;;;;1.63;1.13;;;12.20;99.90;;;;;;5066366;28;20181;-50
2021/05/20 02:18:33;;;;;;;1.80;1.10;;;12.10;99.90;;;;;;5052318;28;20236;-51
2021/05/20 02:20:58;;;;;;;1.83;1.20;;;12.10;99.90;;;;;;5053084;28;20415;-50
2021/05/20 02:23:24;;;;;;;2.23;1.17;;;12.10;99.90;;;;;;5053474;28;20451;-53
2021/05/20 02:25:49;;;;;;;1.10;1.00;;;11.90;99.90;;;;;;5053552;28;20696;-52
2021/05/20 02:28:16;;;;;;;1.73;0.90;;;11.80;99.90;;;;;;5053057;28;20573;-53
2021/05/20 02:30:41;;;;;;;1.43;1.20;;;11.80;99.90;;;;;;5053319;28;20189;-52
2021/05/20 02:33:07;;;;;;;2.07;1.17;;;11.70;99.90;;;;;;5053006;28;20436;-51
2021/05/20 02:35:33;;;;;;;1.23;0.97;;;11.80;99.90;;;;;;5053562;28;20412;-51
2021/05/20 02:37:59;;;;;;;1.17;1.07;;;11.70;99.90;;;;;;5052887;28;20202;-51
2021/05/20 02:40:25;;;;;;;1.40;1.20;;;11.70;99.90;;;;;;5053281;28;20162;-51
2021/05/20 02:42:50;;;;;;;2.30;1.27;;;11.60;99.90;;;;;;5052965;28;20495;-51
2021/05/20 02:45:19;;;;;;;2.33;1.30;;;11.70;99.90;;;;;;5036978;28;20456;-51
2021/05/20 02:47:46;;;;;;;1.77;1.27;;;11.70;99.90;;;;;;5057088;28;20178;-51
2021/05/20 02:50:12;;;;;;;1.17;0.90;;;11.80;99.90;;;;;;5056910;28;20496;-53
2021/05/20 02:52:38;;;;;;;2.27;1.00;;;11.70;99.90;;;;;;5057027;28;20405;-52
2021/05/20 02:55:06;;;;;;;1.17;1.03;;;11.70;99.90;;;;;;5049984;28;20428;-53
2021/05/20 02:57:33;;;;;;;4.17;1.30;;;11.80;99.90;;;;;;5057180;28;20244;-54
2021/05/20 02:59:58;;;;;;;1.23;1.00;;;11.90;99.90;;;;;;5057196;28;20810;-51
2021/05/20 03:02:24;;;;;;;1.40;1.00;;;11.90;99.90;;;;;;5056963;28;20397;-50
2021/05/20 03:04:51;;;;;;;1.40;1.30;;;11.90;99.90;;;;;;5056510;28;20717;-51
2021/05/20 03:07:17;;;;;;;1.90;1.13;;;11.90;99.90;;;;;;5057414;28;20210;-50
2021/05/20 03:09:43;;;;;;;1.20;0.90;;;12.00;99.90;;;;;;5057035;28;20418;-51
2021/05/20 03:12:09;;;;;;;3.50;1.10;;;12.00;99.90;;;;;;5056594;28;20493;-51
2021/05/20 03:14:35;;;;;;;3.23;1.00;;;11.90;99.90;;;;;;5056622;28;20409;-52
2021/05/20 03:17:04;;;;;;;1.37;1.00;;;11.90;99.90;;;;;;5056383;28;20452;-51
2021/05/20 03:19:29;;;;;;;1.00;0.83;;;12.00;99.90;;;;;;5053816;28;20477;-51
2021/05/20 03:21:55;;;;;;;1.40;1.10;;;12.00;99.90;;;;;;5056423;28;20940;-52
2021/05/20 03:24:21;;;;;;;1.63;1.23;;;12.10;99.90;;;;;;5056374;28;20527;-52
2021/05/20 03:26:46;;;;;;;2.40;1.33;;;12.10;99.90;;;;;;5056400;28;20655;-53
2021/05/20 03:29:12;;;;;;;1.10;1.00;;;12.00;99.90;;;;;;5056668;28;20170;-54
2021/05/20 03:31:38;;;;;;;1.10;0.97;;;11.80;99.90;;;;;;5056550;28;20561;-51
2021/05/20 03:34:03;;;;;;;1.17;1.03;;;11.70;99.90;;;;;;5056063;28;20213;-52
2021/05/20 03:36:29;;;;;;;4.10;1.00;;;11.80;99.90;;;;;;5056051;28;20237;-52
2021/05/20 03:38:54;;;;;;;1.93;1.10;;;11.90;99.90;;;;;;5056115;28;20736;-52
2021/05/20 03:41:20;;;;;;;2.13;1.17;;;11.90;99.90;;;;;;5056084;28;20170;-52
2021/05/20 03:43:46;;;;;;;2.43;1.23;;;11.70;99.90;;;;;;5050172;28;20172;-53
2021/05/20 03:46:11;;;;;;;4.07;1.10;;;11.80;99.90;;;;;;5044384;28;20210;-52
2021/05/20 03:48:37;;;;;;;1.73;1.30;;;11.60;99.90;;;;;;5055422;28;20221;-51
2021/05/20 03:51:02;;;;;;;1.43;1.20;;;11.80;99.90;;;;;;5056121;28;20170;-51
2021/05/20 03:53:31;;;;;;;1.87;1.17;;;11.90;99.90;;;;;;5056350;28;20565;-51
2021/05/20 03:55:58;;;;;;;1.10;1.00;;;12.00;99.90;;;;;;5055124;28;20584;-52
2021/05/20 03:58:24;;;;;;;4.73;1.70;;;12.00;99.90;;;;;;5055310;28;20457;-51
2021/05/20 04:00:49;;;;;;;1.47;1.20;;;11.80;99.90;;;;;;5055875;28;20411;-51
2021/05/20 04:03:32;;;;;;;1.40;1.00;;;11.40;99.90;;;;;;5055075;28;20163;-53
2021/05/20 04:06:03;;;;;;;1.83;1.30;;;11.30;99.90;;;;;;5055565;28;20249;-51
2021/05/20 04:08:29;;;;;;;1.37;0.90;;;11.30;99.90;;;;;;5055673;28;20475;-51
2021/05/20 04:10:55;;;;;;;1.50;1.40;;;11.40;99.90;;;;;;5055914;28;20408;-50
2021/05/20 04:13:32;;;;;;;1.57;1.10;;;11.60;99.90;;;;;;5055668;28;20798;-53
2021/05/20 04:15:58;;;;;;;2.23;1.37;;;11.70;99.90;;;;;;5055341;28;20433;-50
2021/05/20 04:18:24;;;;;;;1.80;1.10;;;11.80;99.90;;;;;;5054327;28;20460;-54
2021/05/20 04:20:51;;;;;;;3.53;1.00;;;11.60;99.90;;;;;;5055417;28;20457;-50
2021/05/20 04:23:17;;;;;;;1.47;1.20;;;11.80;99.90;;;;;;5048008;28;20404;-50
2021/05/20 04:25:43;;;;;;;1.00;0.90;;;11.80;99.90;;;;;;5055380;28;20411;-51
2021/05/20 04:28:09;;;;;;;2.03;1.17;;;11.80;99.90;;;;;;5054987;28;20506;-51
2021/05/20 04:30:35;;;;;;;1.00;0.90;;;11.70;99.90;;;;;;5055170;28;20245;-52
2021/05/20 04:33:03;;;;;;;2.30;1.13;;;11.90;99.90;;;;;;5054796;28;20773;-51
2021/05/20 04:35:29;;;;;;;1.60;0.80;;;11.90;99.90;;;;;;5054376;28;20397;-51
2021/05/20 04:37:54;;;;;;;1.13;0.97;;;12.00;99.90;;;;;;5055120;28;20436;-51
2021/05/20 04:40:20;;;;;;;2.10;1.10;;;11.80;99.90;;;;;;5054909;28;20162;-51
2021/05/20 04:42:45;;;;;;;1.20;0.90;;;12.00;99.90;;;;;;5054759;28;20674;-51
2021/05/20 04:45:12;;;;;;;1.30;0.90;;;12.20;99.90;;;;;;5037523;28;20168;-54
2021/05/20 04:47:37;;;;;;;1.67;0.80;;;12.20;99.90;;;;;;5054742;28;20187;-50
2021/05/20 04:50:03;;;;;;;2.00;1.10;;;12.30;99.90;;;;;;5054017;28;20432;-51
2021/05/20 04:52:29;;;;;;;0.97;0.77;;;12.20;99.90;;;;;;5043940;28;20676;-50
2021/05/20 04:54:55;;;;;;;0.90;0.80;;;12.10;99.90;;;;;;5053308;28;20413;-54
2021/05/20 04:57:20;;;;;;;0.93;0.83;;;12.10;99.90;;;;;;5054952;28;20645;-50
2021/05/20 04:59:46;;;;;;;1.13;1.03;;;12.00;99.90;;;;;;5054775;28;20217;-51
2021/05/20 05:02:11;;;;;;;1.63;1.10;;;12.10;99.90;;;;;;5054670;28;20218;-54
2021/05/20 05:04:37;;;;;;;2.10;1.10;;;12.40;99.90;;;;;;5053463;28;20218;-54
2021/05/20 05:07:03;;;;;;;1.10;1.00;;;12.60;99.90;;;;;;5054077;28;20734;-54
2021/05/20 05:09:28;;;;;;;1.13;0.90;;;12.40;99.90;;;;;;5054093;28;20709;-52
2021/05/20 05:11:54;;;;;;;1.63;1.07;;;12.50;99.90;;;;;;5054735;28;20197;-51
2021/05/20 05:14:19;;;;;;;1.00;0.90;;;12.70;99.90;;;;;;5054318;28;20612;-51
2021/05/20 05:16:45;;;;;;;1.53;1.43;;;12.80;99.90;;;;;;5053809;28;20244;-52
2021/05/20 05:19:11;;;;;;;1.40;0.90;;;12.80;99.90;;;;;;5036635;28;20191;-52
2021/05/20 05:21:36;;;;;;;1.73;1.00;;;12.80;99.90;;;;;;5053800;28;20252;-52
2021/05/20 05:24:02;;;;;;;2.73;1.10;;;12.80;99.90;;;;;;5054193;28;20190;-54
2021/05/20 05:26:28;;;;;;;1.83;1.00;;;12.60;99.90;;;;;;5054504;28;20166;-53
2021/05/20 05:28:53;;;;;;;1.23;0.83;;;12.80;99.90;;;;;;5054051;28;20171;-52
2021/05/20 05:31:23;;;;;;;1.33;1.00;;;12.60;99.90;;;;;;5053956;28;20174;-52
2021/05/20 05:33:49;;;;;;;1.40;1.20;;;12.60;99.90;;;;;;5053804;28;20253;-52
2021/05/20 05:36:15;;;;;;;0.90;0.70;;;12.60;99.90;;;;;;5054238;28;20482;-51
2021/05/20 05:38:40;;;;;;;2.90;1.00;;;12.80;99.90;;;;;;5053701;28;20489;-53
2021/05/20 05:41:06;;;;;;;0.80;0.70;;;12.80;99.90;;;;;;5054532;28;20507;-51
2021/05/20 05:43:31;;;;;;;1.10;1.00;;;13.00;99.90;;;;;;5053576;28;20174;-52
2021/05/20 05:45:57;;;;;;;1.50;0.73;;;12.80;99.90;;;;;;5053835;28;20164;-53
2021/05/20 05:48:23;;;;;;;1.50;1.27;;;12.90;99.90;;;;;;5052909;28;20191;-53
2021/05/20 05:50:55;;;;;;;3.57;2.50;;;12.90;99.90;;;;;;5053538;28;20175;-50
2021/05/20 05:53:21;;;;;;;1.47;1.10;;;13.20;99.90;;;;;;5053545;28;20159;-54
2021/05/20 05:55:46;;;;;;;4.13;1.20;;;13.30;99.90;;;;;;5053254;28;20405;-51
2021/05/20 05:58:12;;;;;;;2.57;1.10;;;13.30;99.90;;;;;;5053684;28;20565;-50
2021/05/20 06:00:38;;;;;;;1.27;1.17;;;13.60;99.90;;;;;;5053271;28;20534;-54
2021/05/20 06:03:04;;;;;;;1.93;0.90;;;13.50;99.90;;;;;;5053940;28;20668;-52
2021/05/20 06:05:30;;;;;;;1.10;1.00;;;13.50;99.90;;;;;;5034947;28;20451;-51
2021/05/20 06:07:56;;;;;;;2.10;1.10;;;13.70;99.90;;;;;;5070370;28;20440;-52
2021/05/20 06:10:23;;;;;;;2.33;1.30;;;13.90;99.90;;;;;;5073338;28;20212;-52
2021/05/20 06:12:49;;;;;;;2.33;1.30;;;13.90;99.90;;;;;;5073145;28;20178;-52
2021/05/20 06:15:15;;;;;;;1.90;1.67;;;14.00;99.90;;;;;;5072817;28;20405;-51
2021/05/20 06:17:41;;;;;;;1.30;1.20;;;13.90;99.90;;;;;;5053245;28;20448;-54
2021/05/20 06:20:08;;;;;;;1.67;1.27;;;14.00;99.90;;;;;;5068521;28;20818;-53
2021/05/20 06:22:34;;;;;;;2.40;1.47;;;14.10;99.90;;;;;;5073564;28;20173;-53
2021/05/20 06:24:59;;;;;;;19.73;17.70;;;14.00;99.90;;;;;;5055302;28;20467;-53
2021/05/20 06:27:28;;;;;;;2.80;1.80;;;14.10;99.90;;;;;;5073207;28;20425;-51
2021/05/20 06:29:55;;;;;;;1.40;1.23;;;13.90;99.90;;;;;;5073095;28;20666;-51
2021/05/20 06:32:21;;;;;;;1.87;1.00;;;13.70;99.90;;;;;;5045617;28;20411;-54
2021/05/20 06:34:47;;;;;;;1.30;1.10;;;13.70;99.90;;;;;;5047199;28;20760;-54
2021/05/20 06:37:12;;;;;;;3.73;1.27;;;13.60;99.90;;;;;;5035212;28;21012;-52
2021/05/20 06:39:39;;;;;;;2.40;1.47;;;13.50;99.90;;;;;;5053663;28;20199;-50
2021/05/20 06:42:08;;;;;;;2.60;1.10;;;13.30;99.90;;;;;;5053353;28;20241;-50
2021/05/20 06:44:34;;;;;;;1.40;1.20;;;13.50;99.90;;;;;;5052983;28;20402;-48
2021/05/20 06:46:59;;;;;;;1.60;1.00;;;13.80;99.90;;;;;;5053298;28;20433;-51
2021/05/20 06:49:25;;;;;;;3.80;1.53;;;13.80;99.90;;;;;;5053023;28;20491;-52
2021/05/20 06:51:50;;;;;;;1.47;1.03;;;13.80;99.90;;;;;;5053117;28;20257;-50
2021/05/20 06:54:16;;;;;;;4.80;1.40;;;13.80;99.90;;;;;;5053992;28;20175;-51
2021/05/20 06:56:43;;;;;;;2.40;1.43;;;14.00;99.90;;;;;;5053032;28;20242;-50
2021/05/20 07:01:53;;;;;;;1.87;1.77;;;14.30;99.90;;;;;;5053610;28;20386;-51
2021/05/20 07:04:18;;;;;;;1.80;1.50;;;14.50;99.90;;;;;;5052792;28;20408;-56
2021/05/20 07:06:46;;;;;;;1.90;1.10;;;14.60;99.90;;;;;;5053083;28;20191;-55
2021/05/20 07:09:12;;;;;;;1.23;1.13;;;14.50;99.90;;;;;;5052771;28;20169;-53
2021/05/20 07:11:38;;;;;;;1.10;1.00;;;14.60;99.90;;;;;;5052787;28;20743;-51
2021/05/20 07:14:04;;;;;;;2.20;0.90;;;14.80;99.90;;;;;;5052989;28;20181;-55
2021/05/20 07:16:32;;;;;;;2.13;1.43;;;14.70;99.90;;;;;;5053504;28;20213;-54
2021/05/20 07:18:58;;;;;;;2.33;1.30;;;14.70;99.90;;;;;;5066888;22;21014;-56
2021/05/20 07:21:24;;;;;;;2.23;1.27;;;14.80;99.90;;;;;;5052967;28;20392;-57
2021/05/20 07:23:49;;;;;;;1.33;1.10;;;14.90;99.90;;;;;;5052392;28;20395;-58
2021/05/20 07:26:15;;;;;;;2.33;1.17;;;14.40;99.90;;;;;;5052765;28;20165;-58
2021/05/20 07:28:41;;;;;;;1.70;1.50;;;14.40;99.90;;;;;;5034610;28;20224;-57
2021/05/20 07:31:07;;;;;;;1.37;1.20;;;14.30;99.90;;;;;;5053526;28;20198;-57
2021/05/20 07:33:33;;;;;;;2.60;1.47;;;14.30;99.90;;;;;;5056055;28;20168;-57
2021/05/20 07:35:59;;;;;;;1.40;1.30;;;14.70;99.90;;;;;;5056324;28;20399;-58
2021/05/20 07:38:25;;;;;;;1.50;1.23;;;14.90;99.90;;;;;;5055651;28;20926;-58
2021/05/20 07:40:50;;;;;;;1.33;1.20;;;15.00;99.90;;;;;;5055957;28;20170;-58
2021/05/20 07:43:16;;;;;;;1.20;1.10;;;15.00;99.90;;;;;;5055913;28;20173;-58
2021/05/20 07:45:42;;;;;;;3.37;1.40;;;15.20;99.90;;;;;;5045813;28;20530;-58
2021/05/20 07:48:07;;;;;;;2.07;1.10;;;15.40;99.90;;;;;;5055620;28;20193;-58
2021/05/20 07:50:33;;;;;;;2.30;1.30;;;15.40;99.90;;;;;;5055404;28;20168;-57
2021/05/20 07:52:58;;;;;;;1.47;1.30;;;15.40;99.90;;;;;;5055804;28;20542;-58
2021/05/20 07:55:24;;;;;;;1.37;1.10;;;15.30;99.90;;;;;;5038476;28;20188;-58
2021/05/20 07:57:53;;;;;;;1.80;1.10;;;15.70;99.90;;;;;;5055713;28;20739;-58
2021/05/20 08:00:19;;;;;;;4.17;1.10;;;15.40;99.90;;;;;;5055736;28;20174;-57
2021/05/20 08:05:28;;;;;;;1.27;1.17;;;15.60;99.90;;;;;;5055870;28;20378;-58
2021/05/20 08:13:04;;;;;;;1.23;1.10;;;15.50;99.90;;;;;;5047453;28;20909;-56
2021/05/20 08:15:29;;;;;;;2.13;1.10;;;15.70;99.90;;;;;;5037992;28;20244;-58
2021/05/20 08:17:55;;;;;;;1.93;1.20;;;15.40;99.90;;;;;;5054995;28;20249;-58
2021/05/20 08:20:21;;;;;;;2.47;1.10;;;15.20;99.90;;;;;;5054753;28;20171;-58
2021/05/20 08:22:47;;;;;;;2.70;0.93;;;15.00;99.90;;;;;;5054978;28;20335;-58
2021/05/20 08:25:12;;;;;;;1.30;1.00;;;15.30;99.90;;;;;;5055342;28;20511;-57
2021/05/20 08:27:38;;;;;;;1.30;1.10;;;15.40;99.90;;;;;;5055084;28;20186;-58
2021/05/20 08:30:08;;;;;;;1.63;1.20;;;15.40;99.90;;;;;;5055186;28;20258;-58
2021/05/20 08:32:35;;;;;;;1.60;1.20;;;15.30;99.90;;;;;;5055283;28;20174;-58
2021/05/20 08:35:01;;;;;;;1.20;0.83;;;15.40;99.90;;;;;;5054354;28;20408;-58
2021/05/20 08:37:28;;;;;;;1.37;0.90;;;15.40;99.90;;;;;;5054795;28;20485;-58
2021/05/20 08:39:54;;;;;;;1.20;1.10;;;15.50;99.90;;;;;;5055085;28;20201;-57
2021/05/20 08:42:20;;;;;;;4.03;1.00;;;15.40;99.90;;;;;;5054217;28;20405;-56
2021/05/20 08:44:45;;;;;;;1.13;1.03;;;15.50;99.90;;;;;;5055020;28;20606;-58
2021/05/20 08:47:11;;;;;;;1.70;1.60;;;16.10;99.90;;;;;;5054778;28;20574;-57
2021/05/20 08:49:38;;;;;;;2.13;1.40;;;16.40;99.90;;;;;;5055031;28;20178;-57
2021/05/20 08:52:04;;;;;;;1.13;1.03;;;16.40;99.90;;;;;;5055000;28;20411;-57
2021/05/20 08:54:29;;;;;;;1.67;1.03;;;16.50;99.90;;;;;;5055330;28;20408;-57
2021/05/20 08:56:55;;;;;;;1.50;0.90;;;16.50;99.90;;;;;;5054782;28;20178;-58
2021/05/20 08:59:22;;;;;;;1.63;1.10;;;16.40;99.90;;;;;;5054796;28;20191;-58
2021/05/20 09:01:50;;;;;;;1.00;0.90;;;16.60;99.90;;;;;;5054970;28;20483;-57
2021/05/20 09:04:16;;;;;;;1.23;0.90;;;16.60;99.90;;;;;;5054603;28;20448;-57
2021/05/20 09:06:52;;;;;;;1.23;0.87;;;16.30;99.90;;;;;;5054736;28;20412;-56
2021/05/20 09:09:23;;;;;;;3.33;1.00;;;16.10;99.90;;;;;;5054181;28;20165;-58
2021/05/20 09:11:57;;;;;;;1.10;1.00;;;16.10;99.90;;;;;;5054651;28;20392;-58
2021/05/20 09:14:38;;;;;;;1.17;0.97;;;16.20;99.90;;;;;;5054720;28;20490;-57
2021/05/20 09:17:20;;;;;;;0.97;0.70;;;16.60;99.90;;;;;;5053970;28;20445;-58
2021/05/20 09:19:59;;;;;;;1.00;0.90;;;16.70;99.90;;;;;;5054059;28;20452;-57
2021/05/20 09:22:24;;;;;;;1.20;0.70;;;16.60;99.70;;;;;;5053879;28;20923;-57
2021/05/20 09:24:52;;;;;;;1.20;0.80;;;16.30;99.90;;;;;;5054241;28;20407;-55
2021/05/20 09:27:42;;;;;;;1.83;1.73;;;16.40;99.70;;;;;;5054106;28;20190;-58
2021/05/20 09:30:36;;;;;;;1.20;1.10;;;16.50;99.90;;;;;;5054211;28;20930;-53
2021/05/20 09:33:08;;;;;;;1.67;1.27;;;16.20;99.90;;;;;;5050720;28;20438;-56
2021/05/20 09:35:49;;;;;;;2.37;1.20;;;16.10;99.90;;;;;;5053802;28;20394;-56
2021/05/20 09:38:22;;;;;;;1.33;1.07;;;16.00;99.90;;;;;;5053297;28;20447;-55
2021/05/20 09:40:56;;;;;;;1.40;0.83;;;15.90;99.90;;;;;;5053809;28;20416;-57
2021/05/20 09:43:34;;;;;;;1.53;1.13;;;16.00;99.90;;;;;;5053985;28;20422;-58
2021/05/20 09:46:01;;;;;;;2.37;1.20;;;16.10;99.90;;;;;;5053713;28;20453;-58
2021/05/20 09:48:35;;;;;;;1.33;1.10;;;16.10;99.90;;;;;;5053794;28;20468;-57
2021/05/20 09:51:00;;;;;;;1.43;1.03;;;15.90;99.90;;;;;;5053144;28;20401;-57
2021/05/20 09:53:28;;;;;;;1.80;1.17;;;16.10;99.90;;;;;;5053252;28;20536;-57
2021/05/20 09:55:59;;;;;;;1.30;1.07;;;16.20;99.90;;;;;;5052927;28;20178;-56
2021/05/20 09:58:27;;;;;;;2.20;1.10;;;16.40;99.90;;;;;;5053196;28;20986;-56
2021/05/20 10:00:56;;;;;;;1.67;1.20;;;16.50;99.90;;;;;;5053694;28;20765;-58
2021/05/20 10:03:24;;;;;;;2.33;1.00;;;16.40;99.50;;;;;;5053826;28;20431;-58
2021/05/20 10:05:56;;;;;;;0.90;0.83;;;16.60;99.50;;;;;;5053300;28;20403;-56
2021/05/20 10:08:24;;;;;;;1.33;0.80;;;16.80;98.70;;;;;;5053347;28;20803;-58
2021/05/20 10:10:54;;;;;;;1.10;0.90;;;17.10;98.60;;;;;;5053539;28;20456;-58
2021/05/20 10:13:24;;;;;;;1.10;0.80;;;17.20;98.10;;;;;;5053458;28;20958;-56
2021/05/20 10:15:50;;;;;;;1.00;0.80;;;17.40;98.30;;;;;;5053219;28;20912;-58
2021/05/20 10:18:18;;;;;;;1.00;0.90;;;17.50;97.40;;;;;;5052762;28;20475;-58
2021/05/20 10:20:46;;;;;;;1.20;0.70;;;17.70;97.00;;;;;;5052687;28;20913;-57
2021/05/20 10:23:14;;;;;;;1.67;0.80;;;18.20;97.20;;;;;;5052787;28;20401;-58
2021/05/20 10:25:41;;;;;;;1.67;0.90;;;18.30;96.70;;;;;;5053285;28;20454;-58
2021/05/20 10:28:09;;;;;;;1.00;0.90;;;18.30;95.80;;;;;;5052918;28;20503;-57
2021/05/20 10:30:36;;;;;;;3.23;0.80;;;18.70;96.10;;;;;;5053274;28;20401;-58
2021/05/20 10:33:03;;;;;;;1.07;0.87;;;18.80;95.10;;;;;;5052871;28;20427;-58
2021/05/20 10:35:43;;;;;;;2.07;0.83;;;19.00;94.50;;;;;;5052777;28;20462;-57
2021/05/20 10:38:10;;;;;;;1.17;0.70;;;19.00;94.00;;;;;;5052757;28;20917;-58
2021/05/20 10:40:36;;;;;;;0.80;0.70;;;18.30;93.40;;;;;;5052466;28;20409;-57
2021/05/20 10:43:06;;;;;;;3.43;0.97;;;17.90;94.60;;;;;;5053177;28;20915;-58
2021/05/20 10:45:32;;;;;;;2.20;1.07;;;18.40;93.00;;;;;;5053318;28;20247;-58
2021/05/20 10:48:04;;;;;;;1.00;0.80;;;18.70;92.80;;;;;;5053249;28;20421;-58
2021/05/20 10:50:55;;;;;;;0.90;0.67;;;18.80;92.70;;;;;;5052952;28;20484;-58
2021/05/20 10:53:48;;;;;;;0.73;0.60;;;19.20;92.10;;;;;;5052692;28;20979;-57
2021/05/20 10:56:19;;;;;;;1.60;0.60;;;19.50;91.60;;;;;;5052497;28;20384;-58
2021/05/20 10:58:47;;;;;;;1.93;0.80;;;19.20;90.80;;;;;;5052590;28;20459;-58
2021/05/20 11:01:37;;;;;;;1.87;0.73;;;19.10;90.60;;;;;;5052950;28;20440;-58
2021/05/20 11:04:08;;;;;;;1.30;0.70;;;18.90;91.60;;;;;;5049486;28;20979;-58
2021/05/20 11:06:46;;;;;;;1.07;0.77;;;18.90;91.30;;;;;;5045772;28;20436;-58
2021/05/20 11:09:15;;;;;;;0.70;0.53;;;18.80;91.30;;;;;;5056487;28;20476;-58
2021/05/20 11:11:41;;;;;;;0.80;0.60;;;18.70;91.60;;;;;;5056508;28;20409;-59
2021/05/20 11:14:26;;;;;;;0.90;0.80;;;18.50;91.60;;;;;;5056756;28;20500;-59
2021/05/20 11:16:53;;;;;;;2.37;0.93;;;18.30;92.10;;;;;;5056073;28;20231;-56
2021/05/20 11:19:25;;;;;;;1.00;0.90;;;18.00;93.50;;;;;;5056068;28;20930;-59
2021/05/20 11:22:04;;;;;;;1.20;0.80;;;18.00;94.70;;;;;;5056545;28;20719;-54
2021/05/20 11:24:38;;;;;;;1.50;0.80;;;17.90;93.20;;;;;;5056098;28;20437;-57
2021/05/20 11:27:17;;;;;;;1.63;0.80;;;18.00;93.50;;;;;;5056484;28;20546;-58
2021/05/20 11:29:46;;;;;;;2.07;0.83;;;18.10;93.40;;;;;;5056399;28;20397;-58
2021/05/20 11:37:38;;;;;;;1.03;0.70;;;17.90;93.20;;;;;;5056470;28;20468;-58
2021/05/20 11:40:06;;;;;;;1.13;0.90;;;18.10;92.80;;;;;;5056447;28;20437;-57
2021/05/20 11:42:33;;;;;;;1.87;0.80;;;18.00;92.20;;;;;;5056256;28;20954;-59
2021/05/20 11:45:00;;;;;;;0.97;0.73;;;17.80;92.80;;;;;;5055909;28;20409;-55
2021/05/20 11:47:27;;;;;;;0.90;0.70;;;18.20;92.80;;;;;;5055997;28;20527;-59
2021/05/20 11:49:53;;;;;;;1.80;1.10;;;18.50;91.90;;;;;;5055906;28;20906;-56
2021/05/20 11:52:20;;;;;;;1.60;0.60;;;19.20;90.90;;;;;;5056085;28;20508;-57
2021/05/20 11:54:50;;;;;;;1.73;0.80;;;19.40;90.30;;;;;;5055512;28;20420;-57
2021/05/20 11:57:18;;;;;;;1.07;0.80;;;19.70;87.90;;;;;;5056091;28;20777;-57
2021/05/20 11:59:46;;;;;;;1.63;0.60;;;19.20;88.90;;;;;;5055697;28;20817;-59
2021/05/20 12:02:31;;;;;;;1.77;0.70;;;19.70;87.50;;;;;;5055818;28;20397;-58
2021/05/20 12:05:07;;;;;;;1.07;0.83;;;21.80;82.80;;;;;;5055988;28;20398;-58
2021/05/20 12:07:37;;;;;;;1.77;0.70;;;23.80;72.60;;;;;;5055561;28;20437;-58
2021/05/20 12:10:23;;;;;;;2.70;0.70;;;23.90;69.40;;;;;;5055802;28;20413;-58
2021/05/20 12:12:56;;;;;;;1.00;0.60;;;22.80;67.40;;;;;;5055427;28;20424;-59
2021/05/20 12:15:25;;;;;;;1.00;0.63;;;22.00;73.80;;;;;;5054900;28;20405;-59
2021/05/20 12:17:51;;;;;;;2.00;0.80;;;23.70;66.80;;;;;;5053978;28;20453;-59
2021/05/20 12:20:19;;;;;;;1.30;0.70;;;24.90;65.90;;;;;;5054845;28;20463;-59
2021/05/20 12:22:45;;;;;;;1.30;0.60;;;26.80;59.20;;;;;;5054733;28;20421;-59
2021/05/20 12:25:14;;;;;;;1.40;0.40;;;26.20;57.50;;;;;;5054714;28;21023;-58
2021/05/20 12:27:39;;;;;;;1.53;0.50;;;27.20;54.80;;;;;;5054920;28;20421;-57
2021/05/20 12:30:17;;;;;;;5.23;1.10;;;24.60;54.80;;;;;;5054709;28;20463;-58
2021/05/20 12:32:44;;;;;;;1.00;0.60;;;23.60;58.80;;;;;;5054932;28;20212;-59
2021/05/20 12:35:13;;;;;;;0.90;0.60;;;23.10;59.80;;;;;;5054535;28;20496;-57
2021/05/20 12:38:06;;;;;;;1.23;0.70;;;22.10;61.40;;;;;;5054613;28;20421;-58
2021/05/20 12:40:35;;;;;;;1.37;0.60;;;21.50;64.30;;;;;;5047194;28;20421;-58
2021/05/20 12:43:09;;;;;;;1.10;0.70;;;20.80;65.90;;;;;;5054900;28;20781;-59
2021/05/20 12:45:55;;;;;;;0.90;0.73;;;20.40;68.10;;;;;;5055055;28;20760;-58
2021/05/20 12:48:29;;;;;;;2.40;0.90;;;20.20;71.20;;;;;;5053938;28;20429;-57
2021/05/20 12:51:05;;;;;;;1.47;1.00;;;19.40;76.20;;;;;;5054013;28;20398;-57
2021/05/20 12:53:37;;;;;;;1.37;0.83;;;19.10;75.90;;;;;;5054485;28;20396;-57
2021/05/20 12:56:23;;;;;;;2.50;0.70;;;18.80;75.70;;;;;;5054649;28;20385;-59
2021/05/20 12:58:56;;;;;;;0.70;0.60;;;18.80;73.70;;;;;;5053991;28;20980;-57
2021/05/20 13:01:24;;;;;;;1.00;0.83;;;19.00;73.40;;;;;;5054590;28;20813;-57
2021/05/20 13:03:53;;;;;;;1.20;0.80;;;18.90;75.30;;;;;;5054530;28;20405;-58
2021/05/20 13:06:21;;;;;;;3.60;0.63;;;19.00;75.20;;;;;;5054168;28;20405;-59
2021/05/20 13:08:47;;;;;;;0.83;0.47;;;20.10;75.20;;;;;;5053780;28;20421;-58